sensor_id;sensor_type;location;lat;lon;timestamp;pressure;altitude;pressure_sealevel;temperature;humidity
42945;BME280;28584;42.636;23.294;2022-08-23T00:01:11;73875.94;;;16.02;100.00
42945;BME280;28584;42.636;23.294;2022-08-23T00:03:38;74004.31;;;16.04;100.00
42945;BME280;28584;42.636;23.294;2022-08-23T00:06:04;74022.81;;;16.08;100.00
42945;BME280;28584;42.636;23.294;2022-08-23T00:08:29;74057.09;;;16.16;100.00
42945;BME280;28584;42.636;23.294;2022-08-23T00:10:56;74127.53;;;16.29;100.00
42945;BME280;28584;42.636;23.294;2022-08-23T00:13:22;74112.44;;;16.42;100.00
42945;BME280;28584;42.636;23.294;2022-08-23T00:15:48;74087.59;;;16.56;100.00
42945;BME280;28584;42.636;23.294;2022-08-23T00:18:14;73931.09;;;16.69;100.00
42945;BME280;28584;42.636;23.294;2022-08-23T00:20:40;73880.72;;;16.75;100.00
42945;BME280;28584;42.636;23.294;2022-08-23T00:23:06;73781.22;;;16.84;100.00
42945;BME280;28584;42.636;23.294;2022-08-23T00:25:31;73708.53;;;16.92;100.00
42945;BME280;28584;42.636;23.294;2022-08-23T00:27:57;73672.38;;;16.87;100.00
42945;BME280;28584;42.636;23.294;2022-08-23T00:30:23;73659.34;;;16.83;100.00
42945;BME280;28584;42.636;23.294;2022-08-23T00:32:48;73659.22;;;16.76;100.00
42945;BME280;28584;42.636;23.294;2022-08-23T00:35:15;73602.72;;;16.70;100.00
42945;BME280;28584;42.636;23.294;2022-08-23T00:37:41;73577.81;;;16.79;100.00
42945;BME280;28584;42.636;23.294;2022-08-23T00:40:11;73548.38;;;16.75;100.00
42945;BME280;28584;42.636;23.294;2022-08-23T00:42:42;73557.56;;;16.85;100.00
42945;BME280;28584;42.636;23.294;2022-08-23T00:45:53;73598.56;;;16.78;100.00
42945;BME280;28584;42.636;23.294;2022-08-23T00:48:43;73662.56;;;16.76;100.00
42945;BME280;28584;42.636;23.294;2022-08-23T00:51:29;73660.78;;;16.75;100.00
42945;BME280;28584;42.636;23.294;2022-08-23T00:54:00;73736.94;;;16.74;100.00
42945;BME280;28584;42.636;23.294;2022-08-23T00:56:29;73775.91;;;16.75;100.00
42945;BME280;28584;42.636;23.294;2022-08-23T00:58:56;73840.88;;;16.72;100.00
42945;BME280;28584;42.636;23.294;2022-08-23T01:01:21;73862.13;;;16.60;100.00
42945;BME280;28584;42.636;23.294;2022-08-23T01:03:50;73901.28;;;16.51;100.00
42945;BME280;28584;42.636;23.294;2022-08-23T01:06:25;73914.78;;;16.44;100.00
42945;BME280;28584;42.636;23.294;2022-08-23T01:08:55;73867.16;;;16.34;100.00
42945;BME280;28584;42.636;23.294;2022-08-23T01:11:24;73882.81;;;16.26;100.00
42945;BME280;28584;42.636;23.294;2022-08-23T01:13:57;73969.28;;;16.25;100.00
42945;BME280;28584;42.636;23.294;2022-08-23T01:16:36;73957.81;;;16.20;100.00
42945;BME280;28584;42.636;23.294;2022-08-23T01:19:05;74077.06;;;16.24;100.00
42945;BME280;28584;42.636;23.294;2022-08-23T01:21:40;74046.06;;;16.21;100.00
42945;BME280;28584;42.636;23.294;2022-08-23T01:24:09;74132.47;;;16.24;100.00
42945;BME280;28584;42.636;23.294;2022-08-23T01:26:37;74161.00;;;16.30;100.00
42945;BME280;28584;42.636;23.294;2022-08-23T01:29:05;74178.25;;;16.37;100.00
42945;BME280;28584;42.636;23.294;2022-08-23T01:31:31;74199.81;;;16.44;100.00
42945;BME280;28584;42.636;23.294;2022-08-23T01:34:00;74130.91;;;16.51;100.00
42945;BME280;28584;42.636;23.294;2022-08-23T01:36:26;74077.94;;;16.48;100.00
42945;BME280;28584;42.636;23.294;2022-08-23T01:38:51;74066.66;;;16.50;100.00
42945;BME280;28584;42.636;23.294;2022-08-23T01:41:17;73962.19;;;16.52;100.00
42945;BME280;28584;42.636;23.294;2022-08-23T01:43:43;73948.13;;;16.54;100.00
42945;BME280;28584;42.636;23.294;2022-08-23T01:46:12;73965.09;;;16.59;100.00
42945;BME280;28584;42.636;23.294;2022-08-23T01:48:39;73928.78;;;16.63;100.00
42945;BME280;28584;42.636;23.294;2022-08-23T01:51:04;73938.63;;;16.73;100.00
42945;BME280;28584;42.636;23.294;2022-08-23T01:53:31;73893.97;;;16.82;100.00
42945;BME280;28584;42.636;23.294;2022-08-23T01:55:57;73924.47;;;16.96;100.00
42945;BME280;28584;42.636;23.294;2022-08-23T01:58:26;73916.66;;;17.05;100.00
42945;BME280;28584;42.636;23.294;2022-08-23T02:00:52;73905.53;;;17.14;100.00
42945;BME280;28584;42.636;23.294;2022-08-23T02:03:18;73921.47;;;17.25;100.00
42945;BME280;28584;42.636;23.294;2022-08-23T02:05:43;73953.34;;;17.31;100.00
42945;BME280;28584;42.636;23.294;2022-08-23T02:08:10;74210.91;;;17.38;100.00
42945;BME280;28584;42.636;23.294;2022-08-23T02:10:54;74279.81;;;17.40;100.00
42945;BME280;28584;42.636;23.294;2022-08-23T02:13:20;74208.47;;;17.40;100.00
42945;BME280;28584;42.636;23.294;2022-08-23T02:15:46;74334.97;;;17.47;100.00
42945;BME280;28584;42.636;23.294;2022-08-23T02:18:13;74989.91;;;17.55;100.00
42945;BME280;28584;42.636;23.294;2022-08-23T02:20:47;76518.41;;;17.56;100.00
42945;BME280;28584;42.636;23.294;2022-08-23T02:23:13;80445.50;;;17.66;100.00
42945;BME280;28584;42.636;23.294;2022-08-23T02:25:38;86089.31;;;17.73;100.00
42945;BME280;28584;42.636;23.294;2022-08-23T02:28:04;91950.34;;;17.77;100.00
42945;BME280;28584;42.636;23.294;2022-08-23T02:30:30;99922.31;;;17.77;100.00
42945;BME280;28584;42.636;23.294;2022-08-23T02:32:56;113233.56;;;17.87;100.00
42945;BME280;28584;42.636;23.294;2022-08-23T02:35:22;125734.50;;;17.93;100.00
42945;BME280;28584;42.636;23.294;2022-08-23T02:37:48;143528.81;;;17.98;100.00
42945;BME280;28584;42.636;23.294;2022-08-23T02:40:14;159780.88;;;18.06;100.00
42945;BME280;28584;42.636;23.294;2022-08-23T02:42:39;163379.31;;;18.09;100.00
42945;BME280;28584;42.636;23.294;2022-08-23T02:45:06;163396.78;;;18.15;100.00
42945;BME280;28584;42.636;23.294;2022-08-23T02:47:32;163419.59;;;18.24;100.00
42945;BME280;28584;42.636;23.294;2022-08-23T02:49:59;163426.31;;;18.26;100.00
42945;BME280;28584;42.636;23.294;2022-08-23T02:52:24;163435.75;;;18.30;100.00
42945;BME280;28584;42.636;23.294;2022-08-23T02:54:50;163449.16;;;18.35;100.00
42945;BME280;28584;42.636;23.294;2022-08-23T02:57:15;163403.53;;;18.18;100.00
42945;BME280;28584;42.636;23.294;2022-08-23T02:59:40;157770.28;;;17.91;100.00
42945;BME280;28584;42.636;23.294;2022-08-23T03:02:06;123087.72;;;17.65;100.00
42945;BME280;28584;42.636;23.294;2022-08-23T03:04:32;107559.97;;;17.44;100.00
42945;BME280;28584;42.636;23.294;2022-08-23T03:06:58;100475.66;;;17.33;100.00
42945;BME280;28584;42.636;23.294;2022-08-23T03:09:23;97811.69;;;17.25;100.00
42945;BME280;28584;42.636;23.294;2022-08-23T03:11:49;99680.38;;;17.24;100.00
42945;BME280;28584;42.636;23.294;2022-08-23T03:14:15;115794.88;;;17.38;100.00
42945;BME280;28584;42.636;23.294;2022-08-23T03:16:41;155639.03;;;17.66;100.00
42945;BME280;28584;42.636;23.294;2022-08-23T03:19:06;163357.84;;;18.01;100.00
42945;BME280;28584;42.636;23.294;2022-08-23T03:21:32;163422.34;;;18.25;100.00
42945;BME280;28584;42.636;23.294;2022-08-23T03:23:57;163465.34;;;18.41;100.00
42945;BME280;28584;42.636;23.294;2022-08-23T03:26:23;163493.59;;;18.51;100.00
42945;BME280;28584;42.636;23.294;2022-08-23T03:28:48;163493.59;;;18.51;100.00
42945;BME280;28584;42.636;23.294;2022-08-23T03:31:14;163509.69;;;18.57;100.00
42945;BME280;28584;42.636;23.294;2022-08-23T03:33:40;163516.44;;;18.60;100.00
42945;BME280;28584;42.636;23.294;2022-08-23T03:36:08;163504.34;;;18.55;100.00
42945;BME280;28584;42.636;23.294;2022-08-23T03:38:35;163504.34;;;18.55;100.00
42945;BME280;28584;42.636;23.294;2022-08-23T03:41:02;163489.56;;;18.50;100.00
42945;BME280;28584;42.636;23.294;2022-08-23T03:43:28;163484.16;;;18.48;100.00
42945;BME280;28584;42.636;23.294;2022-08-23T03:45:53;163476.09;;;18.45;100.00
42945;BME280;28584;42.636;23.294;2022-08-23T03:48:19;163482.84;;;18.47;100.00
42945;BME280;28584;42.636;23.294;2022-08-23T03:50:44;163476.09;;;18.45;100.00
42945;BME280;28584;42.636;23.294;2022-08-23T03:53:11;163477.44;;;18.45;100.00
42945;BME280;28584;42.636;23.294;2022-08-23T03:55:37;163480.13;;;18.46;100.00
42945;BME280;28584;42.636;23.294;2022-08-23T03:58:03;163473.41;;;18.44;100.00
42945;BME280;28584;42.636;23.294;2022-08-23T04:00:28;163461.31;;;18.39;100.00
42945;BME280;28584;42.636;23.294;2022-08-23T04:02:54;163462.66;;;18.40;100.00
42945;BME280;28584;42.636;23.294;2022-08-23T04:05:19;163441.13;;;18.32;100.00
42945;BME280;28584;42.636;23.294;2022-08-23T04:07:45;163324.22;;;17.88;100.00
42945;BME280;28584;42.636;23.294;2022-08-23T04:10:10;162691.44;;;17.60;100.00
42945;BME280;28584;42.636;23.294;2022-08-23T04:12:39;129082.88;;;17.34;100.00
42945;BME280;28584;42.636;23.294;2022-08-23T04:15:05;109933.09;;;17.15;100.00
42945;BME280;28584;42.636;23.294;2022-08-23T04:17:30;97647.09;;;16.95;100.00
42945;BME280;28584;42.636;23.294;2022-08-23T04:19:56;91600.34;;;16.96;100.00
42945;BME280;28584;42.636;23.294;2022-08-23T04:22:21;87032.25;;;16.90;100.00
42945;BME280;28584;42.636;23.294;2022-08-23T04:24:47;84368.38;;;16.90;100.00
42945;BME280;28584;42.636;23.294;2022-08-23T04:27:13;82012.53;;;16.86;100.00
42945;BME280;28584;42.636;23.294;2022-08-23T04:29:39;79720.47;;;16.82;100.00
42945;BME280;28584;42.636;23.294;2022-08-23T04:32:06;78142.25;;;16.74;100.00
42945;BME280;28584;42.636;23.294;2022-08-23T04:34:32;77362.88;;;16.78;100.00
42945;BME280;28584;42.636;23.294;2022-08-23T04:36:58;76853.28;;;16.88;100.00
42945;BME280;28584;42.636;23.294;2022-08-23T04:39:25;77251.81;;;16.95;100.00
42945;BME280;28584;42.636;23.294;2022-08-23T04:41:50;77988.72;;;16.98;100.00
42945;BME280;28584;42.636;23.294;2022-08-23T04:44:34;79499.88;;;17.09;100.00
42945;BME280;28584;42.636;23.294;2022-08-23T04:47:00;81672.56;;;16.97;100.00
42945;BME280;28584;42.636;23.294;2022-08-23T04:49:25;82952.97;;;17.05;100.00
42945;BME280;28584;42.636;23.294;2022-08-23T04:51:51;83902.75;;;16.97;100.00
42945;BME280;28584;42.636;23.294;2022-08-23T04:54:16;82216.91;;;16.97;100.00
42945;BME280;28584;42.636;23.294;2022-08-23T04:56:42;81393.00;;;17.21;100.00
42945;BME280;28584;42.636;23.294;2022-08-23T04:59:07;81929.88;;;17.38;100.00
42945;BME280;28584;42.636;23.294;2022-08-23T05:01:34;82952.94;;;17.56;100.00
42945;BME280;28584;42.636;23.294;2022-08-23T05:04:01;85005.03;;;17.80;100.00
42945;BME280;28584;42.636;23.294;2022-08-23T05:06:27;92708.88;;;17.93;100.00
42945;BME280;28584;42.636;23.294;2022-08-23T05:08:54;102265.59;;;18.05;100.00
42945;BME280;28584;42.636;23.294;2022-08-23T05:11:19;113228.00;;;17.81;100.00
42945;BME280;28584;42.636;23.294;2022-08-23T05:13:45;110171.88;;;17.63;100.00
42945;BME280;28584;42.636;23.294;2022-08-23T05:16:11;108177.50;;;17.85;100.00
42945;BME280;28584;42.636;23.294;2022-08-23T05:18:37;111487.97;;;18.00;100.00
42945;BME280;28584;42.636;23.294;2022-08-23T05:21:03;113758.75;;;18.05;100.00
42945;BME280;28584;42.636;23.294;2022-08-23T05:23:28;115620.09;;;18.22;100.00
42945;BME280;28584;42.636;23.294;2022-08-23T05:25:54;117557.59;;;18.37;100.00
42945;BME280;28584;42.636;23.294;2022-08-23T05:28:29;123897.91;;;18.46;100.00
42945;BME280;28584;42.636;23.294;2022-08-23T05:31:04;133668.63;;;18.45;100.00
42945;BME280;28584;42.636;23.294;2022-08-23T05:33:32;142780.97;;;18.70;100.00
42945;BME280;28584;42.636;23.294;2022-08-23T05:35:58;154717.00;;;18.71;100.00
42945;BME280;28584;42.636;23.294;2022-08-23T05:38:24;160124.00;;;18.77;100.00
42945;BME280;28584;42.636;23.294;2022-08-23T05:40:52;156584.28;;;18.45;100.00
42945;BME280;28584;42.636;23.294;2022-08-23T05:43:18;139416.59;;;18.37;100.00
42945;BME280;28584;42.636;23.294;2022-08-23T05:45:44;137977.00;;;18.58;100.00
42945;BME280;28584;42.636;23.294;2022-08-23T05:48:11;149925.50;;;18.83;100.00
42945;BME280;28584;42.636;23.294;2022-08-23T05:50:37;158607.69;;;19.16;100.00
42945;BME280;28584;42.636;23.294;2022-08-23T05:53:03;163747.72;;;19.46;100.00
42945;BME280;28584;42.636;23.294;2022-08-23T05:55:29;163841.84;;;19.81;100.00
42945;BME280;28584;42.636;23.294;2022-08-23T05:57:54;163923.91;;;20.12;100.00
42945;BME280;28584;42.636;23.294;2022-08-23T06:00:20;164011.38;;;20.44;100.00
42945;BME280;28584;42.636;23.294;2022-08-23T06:02:46;164010.00;;;20.44;100.00
42945;BME280;28584;42.636;23.294;2022-08-23T06:05:12;164070.56;;;20.66;100.00
42945;BME280;28584;42.636;23.294;2022-08-23T06:07:38;164193.13;;;21.12;100.00
42945;BME280;28584;42.636;23.294;2022-08-23T06:10:04;164300.78;;;21.52;100.00
42945;BME280;28584;42.636;23.294;2022-08-23T06:12:30;164350.63;;;21.71;100.00
42945;BME280;28584;42.636;23.294;2022-08-23T06:14:56;164067.88;;;20.65;100.00
42945;BME280;28584;42.636;23.294;2022-08-23T06:17:22;163812.22;;;19.70;100.00
42945;BME280;28584;42.636;23.294;2022-08-23T06:19:48;163730.19;;;19.40;100.00
42945;BME280;28584;42.636;23.294;2022-08-23T06:22:13;163876.75;;;19.94;100.00
42945;BME280;28584;42.636;23.294;2022-08-23T06:24:39;163954.88;;;20.23;100.00
42945;BME280;28584;42.636;23.294;2022-08-23T06:27:04;164003.28;;;20.41;100.00
42945;BME280;28584;42.636;23.294;2022-08-23T06:29:30;164260.41;;;21.37;100.00
42945;BME280;28584;42.636;23.294;2022-08-23T06:31:55;164345.28;;;21.69;100.00
42945;BME280;28584;42.636;23.294;2022-08-23T06:34:25;164401.88;;;21.90;100.00
42945;BME280;28584;42.636;23.294;2022-08-23T06:36:53;164690.25;;;22.97;100.00
42945;BME280;28584;42.636;23.294;2022-08-23T06:39:21;165057.09;;;24.33;100.00
42945;BME280;28584;42.636;23.294;2022-08-23T06:41:47;165221.78;;;24.94;100.00
42945;BME280;28584;42.636;23.294;2022-08-23T06:44:14;165084.09;;;24.43;100.00
42945;BME280;28584;42.636;23.294;2022-08-23T06:46:40;164895.22;;;23.73;100.00
42945;BME280;28584;42.636;23.294;2022-08-23T06:49:07;164721.28;;;23.08;100.00
42945;BME280;28584;42.636;23.294;2022-08-23T06:54:04;164475.94;;;22.17;100.00
42945;BME280;28584;42.636;23.294;2022-08-23T06:56:30;164330.47;;;21.63;100.00
42945;BME280;28584;42.636;23.294;2022-08-23T06:58:56;164240.22;;;21.29;100.00
42945;BME280;28584;42.636;23.294;2022-08-23T07:03:55;164527.16;;;22.36;100.00
42945;BME280;28584;42.636;23.294;2022-08-23T07:06:25;164566.25;;;22.51;100.00
42945;BME280;28584;42.636;23.294;2022-08-23T07:08:51;164746.88;;;23.18;100.00
42945;BME280;28584;42.636;23.294;2022-08-23T07:11:18;164781.97;;;23.31;100.00
42945;BME280;28584;42.636;23.294;2022-08-23T07:13:44;164829.13;;;23.48;100.00
42945;BME280;28584;42.636;23.294;2022-08-23T07:16:10;164891.19;;;23.71;100.00
42945;BME280;28584;42.636;23.294;2022-08-23T07:18:36;164790.03;;;23.34;100.00
42945;BME280;28584;42.636;23.294;2022-08-23T07:21:03;164516.38;;;22.32;100.00
42945;BME280;28584;42.636;23.294;2022-08-23T07:23:31;164492.13;;;22.23;100.00
42945;BME280;28584;42.636;23.294;2022-08-23T07:26:07;164405.91;;;21.91;100.00
42945;BME280;28584;42.636;23.294;2022-08-23T07:28:33;164403.19;;;21.90;100.00
42945;BME280;28584;42.636;23.294;2022-08-23T07:31:26;164070.56;;;20.66;100.00
42945;BME280;28584;42.636;23.294;2022-08-23T07:33:54;164234.84;;;21.27;100.00
42945;BME280;28584;42.636;23.294;2022-08-23T07:36:21;164307.56;;;21.54;100.00
42945;BME280;28584;42.636;23.294;2022-08-23T07:38:48;164330.47;;;21.63;100.00
42945;BME280;28584;42.636;23.294;2022-08-23T07:41:14;164404.56;;;21.91;100.00
42945;BME280;28584;42.636;23.294;2022-08-23T07:43:40;164645.75;;;22.80;100.00
42945;BME280;28584;42.636;23.294;2022-08-23T07:46:07;164827.78;;;23.48;100.00
42945;BME280;28584;42.636;23.294;2022-08-23T07:48:33;164671.41;;;22.90;100.00
42945;BME280;28584;42.636;23.294;2022-08-23T07:51:02;164719.91;;;23.08;100.00
42945;BME280;28584;42.636;23.294;2022-08-23T07:53:28;164935.66;;;23.88;100.00
42945;BME280;28584;42.636;23.294;2022-08-23T07:55:54;164854.75;;;23.58;100.00
42945;BME280;28584;42.636;23.294;2022-08-23T07:58:21;164582.44;;;22.57;100.00
42945;BME280;28584;42.636;23.294;2022-08-23T08:00:47;164861.53;;;23.60;100.00
42945;BME280;28584;42.636;23.294;2022-08-23T08:03:14;164906.00;;;23.77;100.00
42945;BME280;28584;42.636;23.294;2022-08-23T08:05:41;164900.59;;;23.75;100.00
42945;BME280;28584;42.636;23.294;2022-08-23T08:08:07;164922.19;;;23.83;100.00
42945;BME280;28584;42.636;23.294;2022-08-23T08:10:38;165004.50;;;24.14;100.00
42945;BME280;28584;42.636;23.294;2022-08-23T08:13:05;164889.81;;;23.71;100.00
42945;BME280;28584;42.636;23.294;2022-08-23T08:15:31;165092.19;;;24.46;100.00
42945;BME280;28584;42.636;23.294;2022-08-23T08:17:56;165270.34;;;25.12;100.00
42945;BME280;28584;42.636;23.294;2022-08-23T08:20:23;165336.50;;;25.37;100.00
42945;BME280;28584;42.636;23.294;2022-08-23T08:22:51;165318.97;;;25.30;100.00
42945;BME280;28584;42.636;23.294;2022-08-23T08:25:17;165418.91;;;25.67;95.70
42945;BME280;28584;42.636;23.294;2022-08-23T08:27:42;165444.53;;;25.77;95.02
42945;BME280;28584;42.636;23.294;2022-08-23T08:30:10;165540.47;;;26.12;93.59
42945;BME280;28584;42.636;23.294;2022-08-23T08:32:36;165545.84;;;26.14;89.96
42945;BME280;28584;42.636;23.294;2022-08-23T08:35:03;165505.34;;;25.99;93.68
42945;BME280;28584;42.636;23.294;2022-08-23T08:37:29;165505.34;;;25.99;88.28
42945;BME280;28584;42.636;23.294;2022-08-23T08:39:56;165659.28;;;26.56;84.42
42945;BME280;28584;42.636;23.294;2022-08-23T08:45:19;165478.28;;;25.89;93.89
42945;BME280;28584;42.636;23.294;2022-08-23T08:47:50;165533.72;;;26.10;89.03
42945;BME280;28584;42.636;23.294;2022-08-23T08:55:24;165213.69;;;24.91;100.00
42945;BME280;28584;42.636;23.294;2022-08-23T08:57:51;165270.34;;;25.12;100.00
42945;BME280;28584;42.636;23.294;2022-08-23T09:00:28;165228.50;;;24.97;100.00
42945;BME280;28584;42.636;23.294;2022-08-23T09:02:57;165268.97;;;25.12;100.00
42945;BME280;28584;42.636;23.294;2022-08-23T09:05:26;165374.31;;;25.51;97.87
42945;BME280;28584;42.636;23.294;2022-08-23T09:18:32;166001.31;;;27.83;69.27
42945;BME280;28584;42.636;23.294;2022-08-23T09:20:58;165886.44;;;27.41;66.63
42945;BME280;28584;42.636;23.294;2022-08-23T09:23:30;165721.50;;;26.80;70.65
42945;BME280;28584;42.636;23.294;2022-08-23T09:26:00;165664.72;;;26.58;69.21
42945;BME280;28584;42.636;23.294;2022-08-23T09:28:30;165635.00;;;26.47;75.27
42945;BME280;28584;42.636;23.294;2022-08-23T09:30:58;165639.06;;;26.49;74.91
42945;BME280;28584;42.636;23.294;2022-08-23T09:33:31;165608.00;;;26.37;75.29
42945;BME280;28584;42.636;23.294;2022-08-23T09:38:58;165591.75;;;26.31;75.35
42945;BME280;28584;42.636;23.294;2022-08-23T09:41:27;165478.28;;;25.89;78.52
42945;BME280;28584;42.636;23.294;2022-08-23T09:43:57;165476.91;;;25.89;83.71
42945;BME280;28584;42.636;23.294;2022-08-23T09:46:34;165617.41;;;26.41;78.26
42945;BME280;28584;42.636;23.294;2022-08-23T09:49:28;165613.41;;;26.39;77.52
42945;BME280;28584;42.636;23.294;2022-08-23T09:51:57;165413.47;;;25.65;79.38
42945;BME280;28584;42.636;23.294;2022-08-23T09:54:33;165574.22;;;26.25;75.09
42945;BME280;28584;42.636;23.294;2022-08-23T09:57:02;165822.81;;;27.17;65.16
42945;BME280;28584;42.636;23.294;2022-08-23T09:59:46;165991.84;;;27.80;60.67
42945;BME280;28584;42.636;23.294;2022-08-23T10:02:25;165997.28;;;27.82;58.61
42945;BME280;28584;42.636;23.294;2022-08-23T10:05:05;166002.69;;;27.84;57.09
42945;BME280;28584;42.636;23.294;2022-08-23T10:07:38;165959.41;;;27.68;58.25
42945;BME280;28584;42.636;23.294;2022-08-23T10:10:20;165974.28;;;27.73;59.37
42945;BME280;28584;42.636;23.294;2022-08-23T10:12:48;165862.09;;;27.32;58.61
42945;BME280;28584;42.636;23.294;2022-08-23T10:15:14;165824.19;;;27.18;58.55
42945;BME280;28584;42.636;23.294;2022-08-23T10:17:58;165772.88;;;26.99;59.68
42945;BME280;28584;42.636;23.294;2022-08-23T10:23:08;165566.13;;;26.22;60.90
42945;BME280;28584;42.636;23.294;2022-08-23T10:25:42;165836.41;;;27.22;57.71
42945;BME280;28584;42.636;23.294;2022-08-23T10:28:38;165994.53;;;27.81;58.42
42945;BME280;28584;42.636;23.294;2022-08-23T10:31:39;165499.91;;;25.97;66.34
42945;BME280;28584;42.636;23.294;2022-08-23T10:40:09;165371.63;;;25.50;84.15
42945;BME280;28584;42.636;23.294;2022-08-23T10:45:26;165451.28;;;25.79;75.58
42945;BME280;28584;42.636;23.294;2022-08-23T10:50:24;165358.16;;;25.45;79.40
42945;BME280;28584;42.636;23.294;2022-08-23T10:52:54;165248.78;;;25.04;85.44
42945;BME280;28584;42.636;23.294;2022-08-23T10:55:28;165165.09;;;24.73;92.31
42945;BME280;28584;42.636;23.294;2022-08-23T10:58:13;165192.03;;;24.83;91.05
42945;BME280;28584;42.636;23.294;2022-08-23T11:00:40;165264.94;;;25.10;88.53
42945;BME280;28584;42.636;23.294;2022-08-23T11:03:16;165467.50;;;25.85;81.94
42945;BME280;28584;42.636;23.294;2022-08-23T11:08:57;165645.81;;;26.51;82.37
42945;BME280;28584;42.636;23.294;2022-08-23T11:11:45;165505.34;;;25.99;93.88
42945;BME280;28584;42.636;23.294;2022-08-23T11:14:35;165377.03;;;25.52;100.00
42945;BME280;28584;42.636;23.294;2022-08-23T11:17:05;165273.03;;;25.13;100.00
42945;BME280;28584;42.636;23.294;2022-08-23T11:19:47;165223.09;;;24.95;100.00
42945;BME280;28584;42.636;23.294;2022-08-23T11:22:18;165233.88;;;24.99;100.00
42945;BME280;28584;42.636;23.294;2022-08-23T11:24:50;165217.72;;;24.93;100.00
42945;BME280;28584;42.636;23.294;2022-08-23T11:27:37;165235.25;;;24.99;100.00
42945;BME280;28584;42.636;23.294;2022-08-23T11:33:31;165331.16;;;25.35;100.00
42945;BME280;28584;42.636;23.294;2022-08-23T11:43:46;165372.97;;;25.50;100.00
42945;BME280;28584;42.636;23.294;2022-08-23T11:55:12;165553.94;;;26.17;100.00
42945;BME280;28584;42.636;23.294;2022-08-23T11:58:01;165613.41;;;26.39;100.00
42945;BME280;28584;42.636;23.294;2022-08-23T12:00:52;165555.31;;;26.18;100.00
42945;BME280;28584;42.636;23.294;2022-08-23T12:03:30;165524.25;;;26.06;100.00
42945;BME280;28584;42.636;23.294;2022-08-23T12:08:59;165553.94;;;26.17;100.00
42945;BME280;28584;42.636;23.294;2022-08-23T12:14:31;165637.69;;;26.48;87.64
42945;BME280;28584;42.636;23.294;2022-08-23T12:17:00;165678.25;;;26.64;87.71
42945;BME280;28584;42.636;23.294;2022-08-23T12:25:21;165503.97;;;25.99;96.80
42945;BME280;28584;42.636;23.294;2022-08-23T12:28:03;165705.28;;;26.74;100.00
42945;BME280;28584;42.636;23.294;2022-08-23T12:30:36;165807.97;;;27.12;82.49
42945;BME280;28584;42.636;23.294;2022-08-23T12:36:20;165967.50;;;27.71;94.92
42945;BME280;28584;42.636;23.294;2022-08-23T12:41:27;165745.84;;;26.89;100.00
42945;BME280;28584;42.636;23.294;2022-08-23T12:46:47;165672.88;;;26.62;100.00
42945;BME280;28584;42.636;23.294;2022-08-23T12:49:28;165601.25;;;26.35;100.00
42945;BME280;28584;42.636;23.294;2022-08-23T12:51:57;165440.47;;;25.75;100.00
42945;BME280;28584;42.636;23.294;2022-08-23T12:54:40;165240.66;;;25.01;100.00
42945;BME280;28584;42.636;23.294;2022-08-23T12:57:16;165089.44;;;24.45;100.00
42945;BME280;28584;42.636;23.294;2022-08-23T13:02:31;164857.47;;;23.59;100.00
42945;BME280;28584;42.636;23.294;2022-08-23T13:07:55;164717.22;;;23.07;100.00
42945;BME280;28584;42.636;23.294;2022-08-23T13:10:22;163175.28;;;22.84;100.00
42945;BME280;28584;42.636;23.294;2022-08-23T13:12:49;157759.91;;;22.59;100.00
42945;BME280;28584;42.636;23.294;2022-08-23T13:15:45;149679.44;;;22.36;100.00
42945;BME280;28584;42.636;23.294;2022-08-23T13:18:25;133418.66;;;22.07;100.00
42945;BME280;28584;42.636;23.294;2022-08-23T13:23:50;118827.50;;;21.43;100.00
42945;BME280;28584;42.636;23.294;2022-08-23T13:26:38;103786.34;;;21.42;100.00
42945;BME280;28584;42.636;23.294;2022-08-23T13:29:20;96493.13;;;21.21;100.00
42945;BME280;28584;42.636;23.294;2022-08-23T13:32:01;91746.06;;;21.15;100.00
42945;BME280;28584;42.636;23.294;2022-08-23T13:34:38;89501.88;;;21.02;100.00
42945;BME280;28584;42.636;23.294;2022-08-23T13:37:24;89066.88;;;20.85;100.00
42945;BME280;28584;42.636;23.294;2022-08-23T13:39:53;88160.88;;;20.62;100.00
42945;BME280;28584;42.636;23.294;2022-08-23T13:42:49;84206.19;;;20.33;100.00
42945;BME280;28584;42.636;23.294;2022-08-23T13:45:34;80301.22;;;20.02;100.00
42945;BME280;28584;42.636;23.294;2022-08-23T13:48:10;77894.16;;;19.78;100.00
42945;BME280;28584;42.636;23.294;2022-08-23T13:50:38;76757.91;;;19.63;100.00
42945;BME280;28584;42.636;23.294;2022-08-23T13:53:05;76098.91;;;19.40;100.00
42945;BME280;28584;42.636;23.294;2022-08-23T13:55:38;75665.06;;;19.17;100.00
42945;BME280;28584;42.636;23.294;2022-08-23T13:58:11;75065.78;;;19.01;100.00
42945;BME280;28584;42.636;23.294;2022-08-23T14:00:38;74670.13;;;18.93;100.00
42945;BME280;28584;42.636;23.294;2022-08-23T14:03:04;74397.94;;;18.79;100.00
42945;BME280;28584;42.636;23.294;2022-08-23T14:05:30;74159.59;;;18.46;100.00
42945;BME280;28584;42.636;23.294;2022-08-23T14:07:55;74031.66;;;18.42;100.00
42945;BME280;28584;42.636;23.294;2022-08-23T14:10:21;73805.59;;;18.42;100.00
42945;BME280;28584;42.636;23.294;2022-08-23T14:12:49;73651.88;;;18.56;100.00
42945;BME280;28584;42.636;23.294;2022-08-23T14:15:16;73528.59;;;18.61;100.00
42945;BME280;28584;42.636;23.294;2022-08-23T14:17:44;73498.59;;;18.63;100.00
42945;BME280;28584;42.636;23.294;2022-08-23T14:20:15;73517.66;;;18.49;100.00